sensor_id;sensor_type;location;lat;lon;timestamp;temperature;humidity
46730;DHT22;32476;50.002;11.854;2022-11-23T00:03:46;2.40;99.90
46730;DHT22;32476;50.002;11.854;2022-11-23T00:06:14;2.40;99.90
46730;DHT22;32476;50.002;11.854;2022-11-23T00:08:41;2.40;99.90
46730;DHT22;32476;50.002;11.854;2022-11-23T00:11:09;2.40;99.90
46730;DHT22;32476;50.002;11.854;2022-11-23T00:13:36;2.40;99.90
46730;DHT22;32476;50.002;11.854;2022-11-23T00:16:10;2.40;99.90
46730;DHT22;32476;50.002;11.854;2022-11-23T00:18:39;2.40;99.90
46730;DHT22;32476;50.002;11.854;2022-11-23T00:21:07;2.40;99.90
46730;DHT22;32476;50.002;11.854;2022-11-23T00:23:34;2.40;99.90
46730;DHT22;32476;50.002;11.854;2022-11-23T00:26:03;2.40;99.90
46730;DHT22;32476;50.002;11.854;2022-11-23T00:28:30;2.40;99.90
46730;DHT22;32476;50.002;11.854;2022-11-23T00:30:56;2.40;99.90
46730;DHT22;32476;50.002;11.854;2022-11-23T00:33:23;2.40;99.90
46730;DHT22;32476;50.002;11.854;2022-11-23T00:36:00;2.40;99.90
46730;DHT22;32476;50.002;11.854;2022-11-23T00:38:28;2.40;99.90
46730;DHT22;32476;50.002;11.854;2022-11-23T00:41:02;2.40;99.90
46730;DHT22;32476;50.002;11.854;2022-11-23T00:43:31;2.40;99.90
46730;DHT22;32476;50.002;11.854;2022-11-23T00:46:09;2.40;99.90
46730;DHT22;32476;50.002;11.854;2022-11-23T00:48:45;2.40;99.90
46730;DHT22;32476;50.002;11.854;2022-11-23T00:51:18;2.40;99.90
46730;DHT22;32476;50.002;11.854;2022-11-23T00:53:50;2.40;99.90
46730;DHT22;32476;50.002;11.854;2022-11-23T00:56:17;2.40;99.90
46730;DHT22;32476;50.002;11.854;2022-11-23T00:58:51;2.40;99.90
46730;DHT22;32476;50.002;11.854;2022-11-23T01:01:22;2.40;99.90
46730;DHT22;32476;50.002;11.854;2022-11-23T01:03:52;2.40;99.90
46730;DHT22;32476;50.002;11.854;2022-11-23T01:06:27;2.40;99.90
46730;DHT22;32476;50.002;11.854;2022-11-23T01:09:04;2.40;99.90
46730;DHT22;32476;50.002;11.854;2022-11-23T01:11:38;2.40;99.90
46730;DHT22;32476;50.002;11.854;2022-11-23T01:14:04;2.40;99.90
46730;DHT22;32476;50.002;11.854;2022-11-23T01:16:33;2.30;99.90
46730;DHT22;32476;50.002;11.854;2022-11-23T01:19:06;2.40;99.90
46730;DHT22;32476;50.002;11.854;2022-11-23T01:21:34;2.40;99.90
46730;DHT22;32476;50.002;11.854;2022-11-23T01:24:04;2.40;99.90
46730;DHT22;32476;50.002;11.854;2022-11-23T01:26:33;2.40;99.90
46730;DHT22;32476;50.002;11.854;2022-11-23T01:28:59;2.40;99.90
46730;DHT22;32476;50.002;11.854;2022-11-23T01:31:25;2.40;99.90
46730;DHT22;32476;50.002;11.854;2022-11-23T01:33:59;2.40;99.90
46730;DHT22;32476;50.002;11.854;2022-11-23T01:36:32;2.40;99.90
46730;DHT22;32476;50.002;11.854;2022-11-23T01:39:01;2.40;99.90
46730;DHT22;32476;50.002;11.854;2022-11-23T01:41:31;2.40;99.90
46730;DHT22;32476;50.002;11.854;2022-11-23T01:47:00;2.40;99.90
46730;DHT22;32476;50.002;11.854;2022-11-23T01:49:48;2.30;99.90
46730;DHT22;32476;50.002;11.854;2022-11-23T01:52:20;2.40;99.90
46730;DHT22;32476;50.002;11.854;2022-11-23T01:54:53;2.30;99.90
46730;DHT22;32476;50.002;11.854;2022-11-23T01:57:35;2.40;99.90
46730;DHT22;32476;50.002;11.854;2022-11-23T02:00:05;2.30;99.90
46730;DHT22;32476;50.002;11.854;2022-11-23T02:02:33;2.30;99.90
46730;DHT22;32476;50.002;11.854;2022-11-23T02:05:01;2.30;99.90
46730;DHT22;32476;50.002;11.854;2022-11-23T02:07:29;2.30;99.90
46730;DHT22;32476;50.002;11.854;2022-11-23T02:09:55;2.40;99.90
46730;DHT22;32476;50.002;11.854;2022-11-23T02:12:21;2.40;99.90
46730;DHT22;32476;50.002;11.854;2022-11-23T02:14:49;2.40;99.90
46730;DHT22;32476;50.002;11.854;2022-11-23T02:17:15;2.30;99.90
46730;DHT22;32476;50.002;11.854;2022-11-23T02:20:09;2.30;99.90
46730;DHT22;32476;50.002;11.854;2022-11-23T02:22:56;2.40;99.90
46730;DHT22;32476;50.002;11.854;2022-11-23T02:28:22;2.30;99.90
46730;DHT22;32476;50.002;11.854;2022-11-23T02:30:52;2.30;99.90
46730;DHT22;32476;50.002;11.854;2022-11-23T02:33:20;2.30;99.90
46730;DHT22;32476;50.002;11.854;2022-11-23T02:35:52;2.30;99.90
46730;DHT22;32476;50.002;11.854;2022-11-23T02:38:27;2.30;99.90
46730;DHT22;32476;50.002;11.854;2022-11-23T02:40:55;2.30;99.90
46730;DHT22;32476;50.002;11.854;2022-11-23T02:43:21;2.30;99.90
46730;DHT22;32476;50.002;11.854;2022-11-23T02:45:52;2.30;99.90
46730;DHT22;32476;50.002;11.854;2022-11-23T02:48:18;2.30;99.90
46730;DHT22;32476;50.002;11.854;2022-11-23T02:50:45;2.30;99.90
46730;DHT22;32476;50.002;11.854;2022-11-23T02:53:13;2.30;99.90
46730;DHT22;32476;50.002;11.854;2022-11-23T02:55:39;2.30;99.90
46730;DHT22;32476;50.002;11.854;2022-11-23T02:58:05;2.30;99.90
46730;DHT22;32476;50.002;11.854;2022-11-23T03:00:33;2.30;99.90
46730;DHT22;32476;50.002;11.854;2022-11-23T03:03:01;2.30;99.90
46730;DHT22;32476;50.002;11.854;2022-11-23T03:05:27;2.30;99.90
46730;DHT22;32476;50.002;11.854;2022-11-23T03:07:56;2.30;99.90
46730;DHT22;32476;50.002;11.854;2022-11-23T03:10:22;2.30;99.90
46730;DHT22;32476;50.002;11.854;2022-11-23T03:12:48;2.30;99.90
46730;DHT22;32476;50.002;11.854;2022-11-23T03:15:16;2.30;99.90
46730;DHT22;32476;50.002;11.854;2022-11-23T03:17:42;2.30;99.90
46730;DHT22;32476;50.002;11.854;2022-11-23T03:20:08;2.30;99.90
46730;DHT22;32476;50.002;11.854;2022-11-23T03:22:36;2.20;99.90
46730;DHT22;32476;50.002;11.854;2022-11-23T03:25:02;2.30;99.90
46730;DHT22;32476;50.002;11.854;2022-11-23T03:27:28;2.20;99.90
46730;DHT22;32476;50.002;11.854;2022-11-23T03:29:58;2.30;99.90
46730;DHT22;32476;50.002;11.854;2022-11-23T03:32:25;2.30;99.90
46730;DHT22;32476;50.002;11.854;2022-11-23T03:34:51;2.30;99.90
46730;DHT22;32476;50.002;11.854;2022-11-23T03:37:18;2.30;99.90
46730;DHT22;32476;50.002;11.854;2022-11-23T03:39:44;2.30;99.90
46730;DHT22;32476;50.002;11.854;2022-11-23T03:42:10;2.30;99.90
46730;DHT22;32476;50.002;11.854;2022-11-23T03:44:37;2.30;99.90
46730;DHT22;32476;50.002;11.854;2022-11-23T03:47:03;2.30;99.90
46730;DHT22;32476;50.002;11.854;2022-11-23T03:49:29;2.30;99.90
46730;DHT22;32476;50.002;11.854;2022-11-23T03:51:57;2.30;99.90
46730;DHT22;32476;50.002;11.854;2022-11-23T03:54:22;2.30;99.90
46730;DHT22;32476;50.002;11.854;2022-11-23T03:56:48;2.30;99.90
46730;DHT22;32476;50.002;11.854;2022-11-23T03:59:16;2.30;99.90
46730;DHT22;32476;50.002;11.854;2022-11-23T04:01:42;2.30;99.90
46730;DHT22;32476;50.002;11.854;2022-11-23T04:04:08;2.40;99.90
46730;DHT22;32476;50.002;11.854;2022-11-23T04:06:35;2.40;99.90
46730;DHT22;32476;50.002;11.854;2022-11-23T04:09:01;2.40;99.90
46730;DHT22;32476;50.002;11.854;2022-11-23T04:11:28;2.40;99.90
46730;DHT22;32476;50.002;11.854;2022-11-23T04:13:55;2.40;99.90
46730;DHT22;32476;50.002;11.854;2022-11-23T04:16:21;2.40;99.90
46730;DHT22;32476;50.002;11.854;2022-11-23T04:18:47;2.40;99.90
46730;DHT22;32476;50.002;11.854;2022-11-23T04:21:14;2.40;99.90
46730;DHT22;32476;50.002;11.854;2022-11-23T04:23:40;2.40;99.90
46730;DHT22;32476;50.002;11.854;2022-11-23T04:26:06;2.40;99.90
46730;DHT22;32476;50.002;11.854;2022-11-23T04:28:33;2.40;99.90
46730;DHT22;32476;50.002;11.854;2022-11-23T04:30:59;2.40;99.90
46730;DHT22;32476;50.002;11.854;2022-11-23T04:33:25;2.40;99.90
46730;DHT22;32476;50.002;11.854;2022-11-23T04:35:53;2.40;99.90
46730;DHT22;32476;50.002;11.854;2022-11-23T04:38:18;2.40;99.90
46730;DHT22;32476;50.002;11.854;2022-11-23T04:40:46;2.40;99.90
46730;DHT22;32476;50.002;11.854;2022-11-23T04:43:15;2.40;99.90
46730;DHT22;32476;50.002;11.854;2022-11-23T04:45:41;2.40;99.90
46730;DHT22;32476;50.002;11.854;2022-11-23T04:48:07;2.40;99.90
46730;DHT22;32476;50.002;11.854;2022-11-23T04:50:34;2.40;99.90
46730;DHT22;32476;50.002;11.854;2022-11-23T04:53:03;2.40;99.90
46730;DHT22;32476;50.002;11.854;2022-11-23T04:55:29;2.40;99.90
46730;DHT22;32476;50.002;11.854;2022-11-23T04:57:57;2.40;99.90
46730;DHT22;32476;50.002;11.854;2022-11-23T05:00:23;2.40;99.90
46730;DHT22;32476;50.002;11.854;2022-11-23T05:02:49;2.40;99.90
46730;DHT22;32476;50.002;11.854;2022-11-23T05:05:17;2.40;99.90
46730;DHT22;32476;50.002;11.854;2022-11-23T05:07:43;2.40;99.90
46730;DHT22;32476;50.002;11.854;2022-11-23T05:10:18;2.40;99.90
46730;DHT22;32476;50.002;11.854;2022-11-23T05:12:44;2.40;99.90
46730;DHT22;32476;50.002;11.854;2022-11-23T05:15:11;2.30;99.90
46730;DHT22;32476;50.002;11.854;2022-11-23T05:17:40;2.30;99.90
46730;DHT22;32476;50.002;11.854;2022-11-23T05:20:07;2.40;99.90
46730;DHT22;32476;50.002;11.854;2022-11-23T05:22:34;2.40;99.90
46730;DHT22;32476;50.002;11.854;2022-11-23T05:25:01;2.40;99.90
46730;DHT22;32476;50.002;11.854;2022-11-23T05:27:27;2.30;99.90
46730;DHT22;32476;50.002;11.854;2022-11-23T05:29:53;2.30;99.90
46730;DHT22;32476;50.002;11.854;2022-11-23T05:32:21;2.30;99.90
46730;DHT22;32476;50.002;11.854;2022-11-23T05:34:47;2.30;99.90
46730;DHT22;32476;50.002;11.854;2022-11-23T05:37:13;2.30;99.90
46730;DHT22;32476;50.002;11.854;2022-11-23T05:39:40;2.40;99.90
46730;DHT22;32476;50.002;11.854;2022-11-23T05:42:06;2.30;99.90
46730;DHT22;32476;50.002;11.854;2022-11-23T05:44:32;2.30;99.90
46730;DHT22;32476;50.002;11.854;2022-11-23T05:47:00;2.30;99.90
46730;DHT22;32476;50.002;11.854;2022-11-23T05:49:26;2.30;99.90
46730;DHT22;32476;50.002;11.854;2022-11-23T05:51:52;2.40;99.90
46730;DHT22;32476;50.002;11.854;2022-11-23T05:54:19;2.40;99.90
46730;DHT22;32476;50.002;11.854;2022-11-23T05:56:45;2.30;99.90
46730;DHT22;32476;50.002;11.854;2022-11-23T05:59:11;2.30;99.90
46730;DHT22;32476;50.002;11.854;2022-11-23T06:01:39;2.30;99.90
46730;DHT22;32476;50.002;11.854;2022-11-23T06:04:05;2.30;99.90
46730;DHT22;32476;50.002;11.854;2022-11-23T06:06:31;2.30;99.90
46730;DHT22;32476;50.002;11.854;2022-11-23T06:08:58;2.30;99.90
46730;DHT22;32476;50.002;11.854;2022-11-23T06:11:24;2.30;99.90
46730;DHT22;32476;50.002;11.854;2022-11-23T06:13:50;2.30;99.90
46730;DHT22;32476;50.002;11.854;2022-11-23T06:16:18;2.30;99.90
46730;DHT22;32476;50.002;11.854;2022-11-23T06:18:44;2.30;99.90
46730;DHT22;32476;50.002;11.854;2022-11-23T06:21:09;2.30;99.90
46730;DHT22;32476;50.002;11.854;2022-11-23T06:23:37;2.30;99.90
46730;DHT22;32476;50.002;11.854;2022-11-23T06:26:03;2.30;99.90
46730;DHT22;32476;50.002;11.854;2022-11-23T06:28:29;2.30;99.90
46730;DHT22;32476;50.002;11.854;2022-11-23T06:31:01;2.30;99.90
46730;DHT22;32476;50.002;11.854;2022-11-23T06:33:28;2.30;99.90
46730;DHT22;32476;50.002;11.854;2022-11-23T06:35:58;2.30;99.90
46730;DHT22;32476;50.002;11.854;2022-11-23T06:38:25;2.20;99.90
46730;DHT22;32476;50.002;11.854;2022-11-23T06:40:51;2.20;99.90
46730;DHT22;32476;50.002;11.854;2022-11-23T06:43:19;2.20;99.90
46730;DHT22;32476;50.002;11.854;2022-11-23T06:45:45;2.20;99.90
46730;DHT22;32476;50.002;11.854;2022-11-23T06:48:10;2.20;99.90
46730;DHT22;32476;50.002;11.854;2022-11-23T06:50:38;2.20;99.90
46730;DHT22;32476;50.002;11.854;2022-11-23T06:53:04;2.20;99.90
46730;DHT22;32476;50.002;11.854;2022-11-23T06:55:30;2.20;99.90
46730;DHT22;32476;50.002;11.854;2022-11-23T06:57:57;2.20;99.90
46730;DHT22;32476;50.002;11.854;2022-11-23T07:00:24;2.20;99.90
46730;DHT22;32476;50.002;11.854;2022-11-23T07:02:51;2.20;99.90
46730;DHT22;32476;50.002;11.854;2022-11-23T07:05:19;2.20;99.90
46730;DHT22;32476;50.002;11.854;2022-11-23T07:07:45;2.20;99.90
46730;DHT22;32476;50.002;11.854;2022-11-23T07:10:11;2.20;99.90
46730;DHT22;32476;50.002;11.854;2022-11-23T07:12:40;2.10;99.90
46730;DHT22;32476;50.002;11.854;2022-11-23T07:15:06;2.10;99.90
46730;DHT22;32476;50.002;11.854;2022-11-23T07:17:37;2.10;99.90
46730;DHT22;32476;50.002;11.854;2022-11-23T07:20:08;2.10;99.90
46730;DHT22;32476;50.002;11.854;2022-11-23T07:22:35;2.10;99.90
46730;DHT22;32476;50.002;11.854;2022-11-23T07:25:02;2.10;99.90
46730;DHT22;32476;50.002;11.854;2022-11-23T07:27:31;2.10;99.90
46730;DHT22;32476;50.002;11.854;2022-11-23T07:29:57;2.10;99.90
46730;DHT22;32476;50.002;11.854;2022-11-23T07:32:23;2.10;99.90
46730;DHT22;32476;50.002;11.854;2022-11-23T07:34:50;2.10;99.90
46730;DHT22;32476;50.002;11.854;2022-11-23T07:37:16;2.10;99.90
46730;DHT22;32476;50.002;11.854;2022-11-23T07:39:42;2.10;99.90
46730;DHT22;32476;50.002;11.854;2022-11-23T07:42:09;2.10;99.90
46730;DHT22;32476;50.002;11.854;2022-11-23T07:44:35;2.10;99.90
46730;DHT22;32476;50.002;11.854;2022-11-23T07:47:01;2.10;99.90
46730;DHT22;32476;50.002;11.854;2022-11-23T07:49:29;2.10;99.90
46730;DHT22;32476;50.002;11.854;2022-11-23T07:51:55;2.10;99.90
46730;DHT22;32476;50.002;11.854;2022-11-23T07:54:21;2.10;99.90
46730;DHT22;32476;50.002;11.854;2022-11-23T07:56:48;2.10;99.90
46730;DHT22;32476;50.002;11.854;2022-11-23T07:59:14;2.10;99.90
46730;DHT22;32476;50.002;11.854;2022-11-23T08:01:40;2.20;99.90
46730;DHT22;32476;50.002;11.854;2022-11-23T08:04:07;2.10;99.90
46730;DHT22;32476;50.002;11.854;2022-11-23T08:06:33;2.20;99.90
46730;DHT22;32476;50.002;11.854;2022-11-23T08:08:59;2.20;99.90
46730;DHT22;32476;50.002;11.854;2022-11-23T08:11:27;2.30;99.90
46730;DHT22;32476;50.002;11.854;2022-11-23T08:13:52;2.30;99.90
46730;DHT22;32476;50.002;11.854;2022-11-23T08:16:19;2.40;99.90
46730;DHT22;32476;50.002;11.854;2022-11-23T08:18:46;2.50;99.90
46730;DHT22;32476;50.002;11.854;2022-11-23T08:21:15;2.70;99.90
46730;DHT22;32476;50.002;11.854;2022-11-23T08:23:41;2.70;99.90
46730;DHT22;32476;50.002;11.854;2022-11-23T08:26:08;2.80;99.90
46730;DHT22;32476;50.002;11.854;2022-11-23T08:28:34;2.80;99.90
46730;DHT22;32476;50.002;11.854;2022-11-23T08:31:07;2.80;99.90
46730;DHT22;32476;50.002;11.854;2022-11-23T08:33:36;2.80;99.90
46730;DHT22;32476;50.002;11.854;2022-11-23T08:36:04;2.90;99.90
46730;DHT22;32476;50.002;11.854;2022-11-23T08:38:32;2.90;99.90
46730;DHT22;32476;50.002;11.854;2022-11-23T08:41:01;3.00;99.90
46730;DHT22;32476;50.002;11.854;2022-11-23T08:43:28;3.00;99.90
46730;DHT22;32476;50.002;11.854;2022-11-23T08:45:57;3.10;99.90
46730;DHT22;32476;50.002;11.854;2022-11-23T08:48:25;3.00;99.90
46730;DHT22;32476;50.002;11.854;2022-11-23T08:50:52;3.10;99.90
46730;DHT22;32476;50.002;11.854;2022-11-23T08:53:18;3.20;99.90
46730;DHT22;32476;50.002;11.854;2022-11-23T08:55:46;3.30;99.90
46730;DHT22;32476;50.002;11.854;2022-11-23T08:58:12;3.40;99.90
46730;DHT22;32476;50.002;11.854;2022-11-23T09:00:38;3.50;99.90
46730;DHT22;32476;50.002;11.854;2022-11-23T09:03:05;3.70;99.90
46730;DHT22;32476;50.002;11.854;2022-11-23T09:05:41;3.70;99.90
46730;DHT22;32476;50.002;11.854;2022-11-23T09:08:08;3.80;99.90
46730;DHT22;32476;50.002;11.854;2022-11-23T09:10:35;3.80;99.90
46730;DHT22;32476;50.002;11.854;2022-11-23T09:13:01;3.80;99.90
46730;DHT22;32476;50.002;11.854;2022-11-23T09:15:30;3.90;99.90
46730;DHT22;32476;50.002;11.854;2022-11-23T09:17:56;3.70;99.90
46730;DHT22;32476;50.002;11.854;2022-11-23T09:20:22;3.60;99.90
46730;DHT22;32476;50.002;11.854;2022-11-23T09:22:51;3.70;99.90
46730;DHT22;32476;50.002;11.854;2022-11-23T09:25:18;3.80;99.90
46730;DHT22;32476;50.002;11.854;2022-11-23T09:27:44;3.90;99.90
46730;DHT22;32476;50.002;11.854;2022-11-23T09:30:12;3.90;99.90
46730;DHT22;32476;50.002;11.854;2022-11-23T09:32:38;3.90;99.90
46730;DHT22;32476;50.002;11.854;2022-11-23T09:35:05;3.80;99.90
46730;DHT22;32476;50.002;11.854;2022-11-23T09:37:33;3.80;99.90
46730;DHT22;32476;50.002;11.854;2022-11-23T09:39:59;3.80;99.90
46730;DHT22;32476;50.002;11.854;2022-11-23T09:45:51;3.80;99.90
46730;DHT22;32476;50.002;11.854;2022-11-23T09:48:47;3.70;99.90
46730;DHT22;32476;50.002;11.854;2022-11-23T09:51:20;3.70;99.90
46730;DHT22;32476;50.002;11.854;2022-11-23T09:54:04;3.80;99.90
46730;DHT22;32476;50.002;11.854;2022-11-23T09:56:39;3.80;99.90
46730;DHT22;32476;50.002;11.854;2022-11-23T09:59:40;3.80;99.90
46730;DHT22;32476;50.002;11.854;2022-11-23T10:02:23;3.70;99.90
46730;DHT22;32476;50.002;11.854;2022-11-23T10:04:55;3.70;99.90
46730;DHT22;32476;50.002;11.854;2022-11-23T10:07:42;3.70;99.90
46730;DHT22;32476;50.002;11.854;2022-11-23T10:22:10;3.70;99.90
46730;DHT22;32476;50.002;11.854;2022-11-23T10:24:45;3.60;99.90
46730;DHT22;32476;50.002;11.854;2022-11-23T10:27:17;3.60;99.90
46730;DHT22;32476;50.002;11.854;2022-11-23T10:29:47;3.50;99.90
46730;DHT22;32476;50.002;11.854;2022-11-23T10:32:36;3.60;99.90
46730;DHT22;32476;50.002;11.854;2022-11-23T10:35:15;3.60;99.90
46730;DHT22;32476;50.002;11.854;2022-11-23T10:37:44;3.80;99.90
46730;DHT22;32476;50.002;11.854;2022-11-23T10:40:21;3.80;99.90
46730;DHT22;32476;50.002;11.854;2022-11-23T10:42:52;3.80;99.90
46730;DHT22;32476;50.002;11.854;2022-11-23T10:45:27;4.00;99.90
46730;DHT22;32476;50.002;11.854;2022-11-23T10:47:58;4.00;99.90
46730;DHT22;32476;50.002;11.854;2022-11-23T10:50:34;4.20;99.90
46730;DHT22;32476;50.002;11.854;2022-11-23T11:01:00;4.50;99.90
46730;DHT22;32476;50.002;11.854;2022-11-23T11:03:33;4.60;99.90
46730;DHT22;32476;50.002;11.854;2022-11-23T11:06:01;4.50;99.90
46730;DHT22;32476;50.002;11.854;2022-11-23T11:08:45;4.50;99.90
46730;DHT22;32476;50.002;11.854;2022-11-23T11:11:29;4.50;99.90
46730;DHT22;32476;50.002;11.854;2022-11-23T11:14:17;4.30;99.90
46730;DHT22;32476;50.002;11.854;2022-11-23T11:16:54;4.30;99.90
46730;DHT22;32476;50.002;11.854;2022-11-23T11:19:29;4.20;99.90
46730;DHT22;32476;50.002;11.854;2022-11-23T11:22:00;4.20;99.90
46730;DHT22;32476;50.002;11.854;2022-11-23T11:24:42;4.20;99.90
46730;DHT22;32476;50.002;11.854;2022-11-23T11:27:20;4.10;99.90
46730;DHT22;32476;50.002;11.854;2022-11-23T11:29:50;4.00;99.90
46730;DHT22;32476;50.002;11.854;2022-11-23T11:32:48;4.10;99.90
46730;DHT22;32476;50.002;11.854;2022-11-23T11:35:26;4.20;99.90
46730;DHT22;32476;50.002;11.854;2022-11-23T11:38:01;4.30;99.90
46730;DHT22;32476;50.002;11.854;2022-11-23T11:40:48;4.30;99.90
46730;DHT22;32476;50.002;11.854;2022-11-23T11:43:31;4.30;99.90
46730;DHT22;32476;50.002;11.854;2022-11-23T11:46:26;4.20;99.90
46730;DHT22;32476;50.002;11.854;2022-11-23T11:51:42;4.10;99.90
46730;DHT22;32476;50.002;11.854;2022-11-23T11:54:38;4.00;99.90
46730;DHT22;32476;50.002;11.854;2022-11-23T11:57:16;4.00;99.90
46730;DHT22;32476;50.002;11.854;2022-11-23T11:59:53;4.10;99.90
46730;DHT22;32476;50.002;11.854;2022-11-23T12:02:35;4.20;99.90
46730;DHT22;32476;50.002;11.854;2022-11-23T12:05:18;4.20;99.90
46730;DHT22;32476;50.002;11.854;2022-11-23T12:10:53;4.20;99.90
46730;DHT22;32476;50.002;11.854;2022-11-23T12:13:23;4.10;99.90
46730;DHT22;32476;50.002;11.854;2022-11-23T12:31:20;4.10;99.90
46730;DHT22;32476;50.002;11.854;2022-11-23T12:33:52;4.10;99.90
46730;DHT22;32476;50.002;11.854;2022-11-23T12:36:43;4.10;99.90
46730;DHT22;32476;50.002;11.854;2022-11-23T12:42:19;4.20;99.90
46730;DHT22;32476;50.002;11.854;2022-11-23T12:45:17;4.20;99.90
46730;DHT22;32476;50.002;11.854;2022-11-23T12:48:17;4.20;99.90
46730;DHT22;32476;50.002;11.854;2022-11-23T12:50:59;4.20;99.90
46730;DHT22;32476;50.002;11.854;2022-11-23T12:53:56;4.20;99.90
46730;DHT22;32476;50.002;11.854;2022-11-23T12:59:13;4.00;99.90
46730;DHT22;32476;50.002;11.854;2022-11-23T13:01:47;4.00;99.90
46730;DHT22;32476;50.002;11.854;2022-11-23T13:10:46;3.90;99.90
46730;DHT22;32476;50.002;11.854;2022-11-23T13:19:18;3.90;99.90
46730;DHT22;32476;50.002;11.854;2022-11-23T13:21:45;3.90;99.90
46730;DHT22;32476;50.002;11.854;2022-11-23T13:24:29;3.80;99.90
46730;DHT22;32476;50.002;11.854;2022-11-23T13:32:45;4.00;99.90
46730;DHT22;32476;50.002;11.854;2022-11-23T13:40:32;3.70;99.90
46730;DHT22;32476;50.002;11.854;2022-11-23T13:43:07;3.60;99.90
46730;DHT22;32476;50.002;11.854;2022-11-23T13:46:19;3.70;99.90
46730;DHT22;32476;50.002;11.854;2022-11-23T13:48:54;3.60;99.90
46730;DHT22;32476;50.002;11.854;2022-11-23T13:51:33;3.60;99.90
46730;DHT22;32476;50.002;11.854;2022-11-23T13:54:05;3.60;99.90
46730;DHT22;32476;50.002;11.854;2022-11-23T13:56:46;3.50;99.90
46730;DHT22;32476;50.002;11.854;2022-11-23T14:02:00;3.50;99.90
46730;DHT22;32476;50.002;11.854;2022-11-23T14:04:34;3.60;99.90
46730;DHT22;32476;50.002;11.854;2022-11-23T14:07:10;3.60;99.90
46730;DHT22;32476;50.002;11.854;2022-11-23T14:12:43;3.60;99.90
46730;DHT22;32476;50.002;11.854;2022-11-23T14:15:21;3.60;99.90
46730;DHT22;32476;50.002;11.854;2022-11-23T14:20:57;3.60;99.90
46730;DHT22;32476;50.002;11.854;2022-11-23T14:26:35;3.60;99.90
46730;DHT22;32476;50.002;11.854;2022-11-23T14:35:11;3.50;99.90
46730;DHT22;32476;50.002;11.854;2022-11-23T14:37:54;3.50;99.90
46730;DHT22;32476;50.002;11.854;2022-11-23T14:43:39;3.50;99.90
46730;DHT22;32476;50.002;11.854;2022-11-23T14:46:18;3.40;99.90
46730;DHT22;32476;50.002;11.854;2022-11-23T14:48:48;3.40;99.90
46730;DHT22;32476;50.002;11.854;2022-11-23T14:51:22;3.30;99.90
46730;DHT22;32476;50.002;11.854;2022-11-23T14:53:53;3.30;99.90
46730;DHT22;32476;50.002;11.854;2022-11-23T14:56:43;3.30;99.90
46730;DHT22;32476;50.002;11.854;2022-11-23T14:59:32;3.30;99.90
46730;DHT22;32476;50.002;11.854;2022-11-23T15:02:10;3.30;99.90
46730;DHT22;32476;50.002;11.854;2022-11-23T15:08:10;3.30;99.90
46730;DHT22;32476;50.002;11.854;2022-11-23T15:13:30;3.30;99.90
46730;DHT22;32476;50.002;11.854;2022-11-23T15:15:58;3.30;99.90
46730;DHT22;32476;50.002;11.854;2022-11-23T15:18:28;3.30;99.90
46730;DHT22;32476;50.002;11.854;2022-11-23T15:21:03;3.20;99.90
46730;DHT22;32476;50.002;11.854;2022-11-23T15:23:43;3.20;99.90
46730;DHT22;32476;50.002;11.854;2022-11-23T15:26:27;3.20;99.90
46730;DHT22;32476;50.002;11.854;2022-11-23T15:28:55;3.20;99.90
46730;DHT22;32476;50.002;11.854;2022-11-23T15:31:35;3.10;99.90
46730;DHT22;32476;50.002;11.854;2022-11-23T15:34:11;3.10;99.90
46730;DHT22;32476;50.002;11.854;2022-11-23T15:36:41;3.10;99.90
46730;DHT22;32476;50.002;11.854;2022-11-23T15:39:17;3.00;99.90
46730;DHT22;32476;50.002;11.854;2022-11-23T15:41:46;3.00;99.90
46730;DHT22;32476;50.002;11.854;2022-11-23T15:44:16;2.90;99.90
46730;DHT22;32476;50.002;11.854;2022-11-23T15:46:56;2.90;99.90
46730;DHT22;32476;50.002;11.854;2022-11-23T15:49:24;2.90;99.90
46730;DHT22;32476;50.002;11.854;2022-11-23T15:51:58;2.80;99.90
46730;DHT22;32476;50.002;11.854;2022-11-23T15:54:30;2.80;99.90
46730;DHT22;32476;50.002;11.854;2022-11-23T15:57:02;2.80;99.90
46730;DHT22;32476;50.002;11.854;2022-11-23T15:59:43;2.80;99.90
46730;DHT22;32476;50.002;11.854;2022-11-23T16:02:20;2.70;99.90
46730;DHT22;32476;50.002;11.854;2022-11-23T16:04:49;2.70;99.90
46730;DHT22;32476;50.002;11.854;2022-11-23T16:07:53;2.70;99.90
46730;DHT22;32476;50.002;11.854;2022-11-23T16:10:27;2.60;99.90
46730;DHT22;32476;50.002;11.854;2022-11-23T16:13:01;2.60;99.90
46730;DHT22;32476;50.002;11.854;2022-11-23T16:23:22;2.60;99.90
46730;DHT22;32476;50.002;11.854;2022-11-23T16:26:01;2.60;99.90
46730;DHT22;32476;50.002;11.854;2022-11-23T16:28:31;2.50;99.90
46730;DHT22;32476;50.002;11.854;2022-11-23T16:30:59;2.50;99.90
46730;DHT22;32476;50.002;11.854;2022-11-23T16:33:25;2.50;99.90
46730;DHT22;32476;50.002;11.854;2022-11-23T16:35:53;2.50;99.90
46730;DHT22;32476;50.002;11.854;2022-11-23T16:38:19;2.50;99.90
46730;DHT22;32476;50.002;11.854;2022-11-23T16:40:46;2.50;99.90
46730;DHT22;32476;50.002;11.854;2022-11-23T16:43:17;2.50;99.90
46730;DHT22;32476;50.002;11.854;2022-11-23T16:45:45;2.50;99.90
46730;DHT22;32476;50.002;11.854;2022-11-23T16:51:04;2.50;99.90
46730;DHT22;32476;50.002;11.854;2022-11-23T16:53:31;2.50;99.90
46730;DHT22;32476;50.002;11.854;2022-11-23T16:55:59;2.50;99.90
46730;DHT22;32476;50.002;11.854;2022-11-23T16:58:33;2.40;99.90
46730;DHT22;32476;50.002;11.854;2022-11-23T17:01:01;2.50;99.90
46730;DHT22;32476;50.002;11.854;2022-11-23T17:03:29;2.50;99.90
46730;DHT22;32476;50.002;11.854;2022-11-23T17:05:55;2.40;99.90
46730;DHT22;32476;50.002;11.854;2022-11-23T17:08:21;2.40;99.90
46730;DHT22;32476;50.002;11.854;2022-11-23T17:10:49;2.40;99.90
46730;DHT22;32476;50.002;11.854;2022-11-23T17:13:24;2.40;99.90
46730;DHT22;32476;50.002;11.854;2022-11-23T17:15:54;2.30;99.90
46730;DHT22;32476;50.002;11.854;2022-11-23T17:18:21;2.40;99.90
46730;DHT22;32476;50.002;11.854;2022-11-23T17:20:47;2.40;99.90
46730;DHT22;32476;50.002;11.854;2022-11-23T17:23:14;2.40;99.90
46730;DHT22;32476;50.002;11.854;2022-11-23T17:25:40;2.30;99.90
46730;DHT22;32476;50.002;11.854;2022-11-23T17:28:13;2.30;99.90
46730;DHT22;32476;50.002;11.854;2022-11-23T17:30:42;2.30;99.90
46730;DHT22;32476;50.002;11.854;2022-11-23T17:33:12;2.30;99.90
46730;DHT22;32476;50.002;11.854;2022-11-23T17:35:38;2.30;99.90
46730;DHT22;32476;50.002;11.854;2022-11-23T17:38:12;2.30;99.90
46730;DHT22;32476;50.002;11.854;2022-11-23T17:40:40;2.30;99.90
46730;DHT22;32476;50.002;11.854;2022-11-23T17:43:12;2.30;99.90
46730;DHT22;32476;50.002;11.854;2022-11-23T17:45:39;2.30;99.90
46730;DHT22;32476;50.002;11.854;2022-11-23T17:48:10;2.40;99.90
46730;DHT22;32476;50.002;11.854;2022-11-23T17:50:37;2.40;99.90
46730;DHT22;32476;50.002;11.854;2022-11-23T17:53:03;2.40;99.90